Time;durP1;ratioP1;P1;durP2;ratioP2;P2;SDS_P1;SDS_P2;PMS_P1;PMS_P2;Temp;Humidity;BMP_temperature;BMP_pressure;BME280_temperature;BME280_humidity;BME280_pressure;Samples;Min_cycle;Max_cycle;Signal;HPM_P1;HPM_P2
2023/05/08 00:00:37;;;;;;;7.07;6.37;;;18.50;99.90;;;;;;5022937;28;20189;-66
2023/05/08 00:03:03;;;;;;;7.00;6.30;;;18.50;99.90;;;;;;5024076;28;20427;-66
2023/05/08 00:05:29;;;;;;;7.90;7.10;;;18.50;99.90;;;;;;5023553;28;20944;-66
2023/05/08 00:08:00;;;;;;;6.97;6.27;;;18.50;99.90;;;;;;5016633;28;20475;-65
2023/05/08 00:10:26;;;;;;;7.57;6.50;;;18.50;99.90;;;;;;5021941;28;20446;-65
2023/05/08 00:12:52;;;;;;;10.07;7.10;;;18.50;99.90;;;;;;5018700;28;20804;-65
2023/05/08 00:15:18;;;;;;;9.53;7.03;;;18.40;99.90;;;;;;5018300;28;20439;-65
2023/05/08 00:17:43;;;;;;;8.40;7.13;;;18.50;99.90;;;;;;5017899;28;20624;-65
2023/05/08 00:20:09;;;;;;;9.80;7.50;;;18.50;99.90;;;;;;5020692;28;20183;-65
2023/05/08 00:22:35;;;;;;;7.73;6.97;;;18.50;99.90;;;;;;5013856;28;20189;-65
2023/05/08 00:25:00;;;;;;;8.40;7.00;;;18.40;99.90;;;;;;5018593;28;20732;-65
2023/05/08 00:27:26;;;;;;;8.10;7.33;;;18.50;99.90;;;;;;5020987;28;20268;-65
2023/05/08 00:29:52;;;;;;;7.90;7.10;;;18.50;99.90;;;;;;5018941;28;20484;-65
2023/05/08 00:32:17;;;;;;;12.77;8.50;;;18.50;99.90;;;;;;5022421;28;20181;-65
2023/05/08 00:34:43;;;;;;;9.90;8.90;;;18.40;99.90;;;;;;5024724;28;20574;-65
2023/05/08 00:37:08;;;;;;;8.33;7.33;;;18.40;99.90;;;;;;5023937;28;20249;-65
2023/05/08 00:39:34;;;;;;;8.60;7.80;;;18.40;99.90;;;;;;5018722;28;20224;-66
2023/05/08 00:41:59;;;;;;;11.43;8.47;;;18.40;99.90;;;;;;5015781;28;20253;-65
2023/05/08 00:44:25;;;;;;;8.73;7.83;;;18.40;99.90;;;;;;5016241;28;20535;-65
2023/05/08 00:46:51;;;;;;;7.80;7.00;;;18.40;99.90;;;;;;5016442;28;20670;-65
2023/05/08 00:49:17;;;;;;;10.10;8.50;;;18.30;99.90;;;;;;5019989;28;20295;-65
2023/05/08 00:51:45;;;;;;;8.30;7.47;;;18.40;99.90;;;;;;5024595;28;20208;-65
2023/05/08 00:54:11;;;;;;;8.40;7.60;;;18.40;99.90;;;;;;5022022;28;20240;-65
2023/05/08 00:56:37;;;;;;;10.00;7.33;;;18.40;99.90;;;;;;5021709;28;20439;-65
2023/05/08 00:59:12;;;;;;;9.77;7.60;;;18.40;99.90;;;;;;5021459;28;20459;-65
2023/05/08 01:01:39;;;;;;;9.20;7.40;;;18.40;99.90;;;;;;5016327;28;20443;-65
2023/05/08 01:04:06;;;;;;;9.77;8.10;;;18.40;99.90;;;;;;5021123;28;20960;-65
2023/05/08 01:06:33;;;;;;;9.60;7.27;;;18.40;99.90;;;;;;5022270;28;21494;-65
2023/05/08 01:08:59;;;;;;;8.33;7.00;;;18.40;99.90;;;;;;5015469;28;20549;-65
2023/05/08 01:11:35;;;;;;;9.17;8.30;;;18.50;99.90;;;;;;5018171;28;20455;-66
2023/05/08 01:14:11;;;;;;;8.63;7.73;;;18.50;99.90;;;;;;5017943;28;20530;-65
2023/05/08 01:16:48;;;;;;;14.23;7.70;;;18.40;99.90;;;;;;5021139;28;20447;-65
2023/05/08 01:19:36;;;;;;;7.83;7.10;;;18.40;99.90;;;;;;5032578;28;20459;-65
2023/05/08 01:22:32;;;;;;;8.50;7.67;;;18.40;99.90;;;;;;5020100;28;20446;-65
2023/05/08 01:25:20;;;;;;;9.10;7.80;;;18.40;99.90;;;;;;5020142;28;20529;-65
2023/05/08 01:28:17;;;;;;;12.90;7.40;;;18.40;99.90;;;;;;5017143;28;20438;-65
2023/05/08 01:30:57;;;;;;;10.83;6.90;;;18.50;99.90;;;;;;5019901;28;20880;-65
2023/05/08 01:33:25;;;;;;;8.20;7.40;;;18.40;99.90;;;;;;5020930;28;20510;-66
2023/05/08 01:35:57;;;;;;;8.97;7.50;;;18.40;99.90;;;;;;5023391;28;20533;-65
2023/05/08 01:38:46;;;;;;;7.93;7.13;;;18.30;99.90;;;;;;5020994;28;20469;-65
2023/05/08 01:41:16;;;;;;;10.47;7.37;;;18.40;99.90;;;;;;5015818;28;20443;-65
2023/05/08 01:43:54;;;;;;;9.97;8.97;;;18.40;99.90;;;;;;5021898;28;20456;-65
2023/05/08 01:46:24;;;;;;;8.47;7.57;;;18.40;99.90;;;;;;5022529;28;20438;-65
2023/05/08 01:49:13;;;;;;;7.80;7.00;;;18.40;99.90;;;;;;5019264;28;20463;-65
2023/05/08 01:51:44;;;;;;;11.20;7.40;;;18.40;99.90;;;;;;5015975;28;20547;-65
2023/05/08 01:54:15;;;;;;;7.40;6.70;;;18.30;99.90;;;;;;5015430;28;20985;-65
2023/05/08 01:56:43;;;;;;;8.23;7.43;;;18.30;99.90;;;;;;5022763;28;20443;-65
2023/05/08 01:59:12;;;;;;;9.83;8.50;;;18.30;99.90;;;;;;5017892;28;20474;-65
2023/05/08 02:01:39;;;;;;;10.10;8.60;;;18.30;99.90;;;;;;5017943;28;20987;-65
2023/05/08 02:04:07;;;;;;;8.13;7.30;;;18.30;99.90;;;;;;5019469;28;20482;-65
2023/05/08 02:06:34;;;;;;;11.60;8.13;;;18.30;99.90;;;;;;5021855;28;20453;-66
2023/05/08 02:09:01;;;;;;;8.37;7.37;;;18.40;99.90;;;;;;5018066;28;20462;-65
2023/05/08 02:11:27;;;;;;;8.23;7.53;;;18.40;99.90;;;;;;5017402;28;20450;-65
2023/05/08 02:13:57;;;;;;;10.10;7.77;;;18.30;99.90;;;;;;5017290;28;20528;-65
2023/05/08 02:16:24;;;;;;;7.93;7.23;;;18.30;99.90;;;;;;5020232;28;20439;-65
2023/05/08 02:18:52;;;;;;;7.67;6.97;;;18.30;99.90;;;;;;5022794;28;20466;-65
2023/05/08 02:21:21;;;;;;;7.90;7.10;;;18.30;99.90;;;;;;5017660;28;21006;-65
2023/05/08 02:23:47;;;;;;;8.60;7.70;;;18.30;99.90;;;;;;5020688;28;20561;-65
2023/05/08 02:26:14;;;;;;;8.93;7.60;;;18.30;99.90;;;;;;5016197;28;20435;-65
2023/05/08 02:28:41;;;;;;;8.20;7.40;;;18.30;99.90;;;;;;5020167;28;20447;-65
2023/05/08 02:31:10;;;;;;;8.30;7.50;;;18.30;99.90;;;;;;5019544;28;20419;-65
2023/05/08 02:33:40;;;;;;;7.50;6.83;;;18.30;99.90;;;;;;5018517;28;20431;-67
2023/05/08 02:36:06;;;;;;;8.60;7.80;;;18.30;99.90;;;;;;5021406;28;20429;-64
2023/05/08 02:38:33;;;;;;;8.80;7.90;;;18.30;99.90;;;;;;5019238;28;20500;-64
2023/05/08 02:41:02;;;;;;;9.13;8.13;;;18.30;99.90;;;;;;5016773;28;20475;-64
2023/05/08 02:43:28;;;;;;;10.73;8.07;;;18.30;99.90;;;;;;5020088;28;20470;-64
2023/05/08 02:46:17;;;;;;;9.73;8.47;;;18.30;99.90;;;;;;5021089;28;21090;-64
2023/05/08 02:49:03;;;;;;;9.43;8.53;;;18.30;99.90;;;;;;5023185;28;20223;-64
2023/05/08 02:52:02;;;;;;;10.20;7.60;;;18.20;99.90;;;;;;5022954;28;20422;-64
2023/05/08 02:54:57;;;;;;;10.70;9.27;;;18.20;99.90;;;;;;5019471;28;20482;-64
2023/05/08 02:57:45;;;;;;;11.30;8.37;;;18.20;99.90;;;;;;5017585;28;20812;-67
2023/05/08 03:00:25;;;;;;;9.27;8.40;;;18.20;99.90;;;;;;5019246;28;20435;-66
2023/05/08 03:03:00;;;;;;;8.80;8.00;;;18.20;99.90;;;;;;5012865;28;20550;-65
2023/05/08 03:05:30;;;;;;;9.40;8.37;;;18.20;99.90;;;;;;5021162;28;20438;-65
2023/05/08 03:08:01;;;;;;;12.60;9.63;;;18.20;99.90;;;;;;5016095;28;20455;-65
2023/05/08 03:10:32;;;;;;;8.83;7.93;;;18.10;99.90;;;;;;5020113;28;20439;-65
2023/05/08 03:13:02;;;;;;;11.20;9.17;;;18.10;99.90;;;;;;5020678;28;20449;-65
2023/05/08 03:15:36;;;;;;;7.97;7.17;;;18.20;99.90;;;;;;5024446;28;20443;-65
2023/05/08 03:18:07;;;;;;;10.20;8.43;;;18.20;99.90;;;;;;5020775;28;20458;-65
2023/05/08 03:20:37;;;;;;;7.70;6.90;;;18.20;99.90;;;;;;5022163;28;20530;-65
2023/05/08 03:23:07;;;;;;;7.93;7.13;;;18.20;99.90;;;;;;5021437;28;20880;-65
2023/05/08 03:25:34;;;;;;;9.40;8.43;;;18.20;99.90;;;;;;5024559;28;20427;-65
2023/05/08 03:28:00;;;;;;;8.13;7.37;;;18.20;99.90;;;;;;5022134;28;20543;-65
2023/05/08 03:30:26;;;;;;;9.40;8.37;;;18.20;99.90;;;;;;5024474;28;20505;-65
2023/05/08 03:32:53;;;;;;;9.13;8.23;;;18.20;99.90;;;;;;5024557;28;20431;-65
2023/05/08 03:35:21;;;;;;;8.70;7.90;;;18.20;99.90;;;;;;5025191;28;20414;-65
2023/05/08 03:37:46;;;;;;;8.83;8.07;;;18.20;99.90;;;;;;5026001;28;20418;-65
2023/05/08 03:40:12;;;;;;;9.80;8.90;;;18.20;99.90;;;;;;5022461;28;20920;-65
2023/05/08 03:42:40;;;;;;;9.87;8.97;;;18.30;99.90;;;;;;5021329;28;21276;-64
2023/05/08 03:45:09;;;;;;;11.37;9.00;;;18.30;99.90;;;;;;5020482;28;20283;-64
2023/05/08 03:47:35;;;;;;;10.90;8.97;;;18.30;99.90;;;;;;5024342;28;20455;-64
2023/05/08 03:50:02;;;;;;;9.87;8.87;;;18.30;99.90;;;;;;5023524;28;20433;-64
2023/05/08 03:52:29;;;;;;;10.60;9.50;;;18.30;99.90;;;;;;5016276;28;20440;-65
2023/05/08 03:54:54;;;;;;;10.30;9.20;;;18.30;99.90;;;;;;5025629;28;20519;-65
2023/05/08 03:57:21;;;;;;;10.20;8.80;;;18.30;99.90;;;;;;5028457;28;20447;-65
2023/05/08 04:00:05;;;;;;;9.83;8.83;;;18.30;99.90;;;;;;5023995;28;20799;-65
2023/05/08 04:02:40;;;;;;;10.20;9.17;;;18.30;99.90;;;;;;5020797;28;20440;-65
2023/05/08 04:05:19;;;;;;;10.33;9.33;;;18.30;99.90;;;;;;5023411;28;20453;-66
2023/05/08 04:07:55;;;;;;;10.80;9.70;;;18.40;99.90;;;;;;5030272;28;20513;-66
2023/05/08 04:10:28;;;;;;;10.30;9.30;;;18.40;99.90;;;;;;5025340;28;20411;-66
2023/05/08 04:13:09;;;;;;;11.83;9.97;;;18.30;99.90;;;;;;5020514;28;20454;-65
2023/05/08 04:15:42;;;;;;;10.70;9.70;;;18.30;99.90;;;;;;5025342;28;20426;-66
2023/05/08 04:18:11;;;;;;;10.77;9.77;;;18.30;99.90;;;;;;5024228;28;20460;-65
2023/05/08 04:20:40;;;;;;;12.90;11.60;;;18.30;99.90;;;;;;5020339;28;21234;-65
2023/05/08 04:23:07;;;;;;;12.23;11.07;;;18.30;99.90;;;;;;5020059;28;20474;-65
2023/05/08 04:25:36;;;;;;;11.37;10.27;;;18.30;99.90;;;;;;5022488;28;21122;-65
2023/05/08 04:28:02;;;;;;;13.83;11.10;;;18.30;99.90;;;;;;5024796;28;20481;-65
2023/05/08 04:30:28;;;;;;;11.53;10.33;;;18.30;99.90;;;;;;5023946;28;20462;-65
2023/05/08 04:32:55;;;;;;;11.93;10.83;;;18.40;99.90;;;;;;5022143;28;20200;-65
2023/05/08 04:35:20;;;;;;;10.63;9.47;;;18.40;99.90;;;;;;5023295;28;20481;-66
2023/05/08 04:37:47;;;;;;;13.67;11.10;;;18.40;99.90;;;;;;5026046;28;20426;-66
2023/05/08 04:40:12;;;;;;;13.27;11.93;;;18.40;99.90;;;;;;5023746;28;20197;-65
2023/05/08 04:42:41;;;;;;;15.20;12.00;;;18.40;99.90;;;;;;5024911;28;20818;-66
2023/05/08 04:45:08;;;;;;;14.60;13.03;;;18.40;99.90;;;;;;5023312;28;20185;-66
2023/05/08 04:47:33;;;;;;;16.73;11.90;;;18.40;99.90;;;;;;5024831;28;20446;-64
2023/05/08 04:49:59;;;;;;;14.17;12.67;;;18.40;99.90;;;;;;5020842;28;20424;-65
2023/05/08 04:52:25;;;;;;;13.80;12.27;;;18.40;99.90;;;;;;5020857;28;20332;-66
2023/05/08 04:54:50;;;;;;;16.63;12.67;;;18.40;99.90;;;;;;5018443;28;20237;-65
2023/05/08 04:57:16;;;;;;;14.27;12.87;;;18.50;99.90;;;;;;5021537;28;20539;-65
2023/05/08 04:59:41;;;;;;;14.27;12.63;;;18.50;99.90;;;;;;5022972;28;20211;-65
2023/05/08 05:02:07;;;;;;;14.20;12.70;;;18.50;99.90;;;;;;5021787;28;20231;-65
2023/05/08 05:04:36;;;;;;;17.50;14.47;;;18.50;99.90;;;;;;5024097;28;20205;-65
2023/05/08 05:07:02;;;;;;;14.83;13.37;;;18.50;99.90;;;;;;5025763;28;20418;-65
2023/05/08 05:09:28;;;;;;;16.93;14.30;;;18.50;99.90;;;;;;5024932;28;20455;-65
2023/05/08 05:11:54;;;;;;;15.63;13.40;;;18.50;99.90;;;;;;5026773;28;20458;-65
2023/05/08 05:14:19;;;;;;;22.03;14.77;;;18.50;99.90;;;;;;5011768;28;20478;-65
2023/05/08 05:16:45;;;;;;;18.17;15.00;;;18.50;99.90;;;;;;5024802;28;20703;-65
2023/05/08 05:19:11;;;;;;;15.37;13.77;;;18.50;99.90;;;;;;5020738;28;20205;-65
2023/05/08 05:21:37;;;;;;;16.43;14.63;;;18.50;99.90;;;;;;5025291;28;20485;-65
2023/05/08 05:24:04;;;;;;;15.40;13.90;;;18.50;99.90;;;;;;5021568;28;20252;-66
2023/05/08 05:26:29;;;;;;;14.67;12.53;;;18.50;99.90;;;;;;5024308;28;20195;-66
2023/05/08 05:28:55;;;;;;;13.23;11.93;;;18.50;99.90;;;;;;5019390;28;20438;-66
2023/05/08 05:31:20;;;;;;;13.20;11.80;;;18.50;99.90;;;;;;5020717;28;20247;-66
2023/05/08 05:33:46;;;;;;;14.13;12.73;;;18.50;99.90;;;;;;5025895;28;20234;-66
2023/05/08 05:36:11;;;;;;;13.70;12.30;;;18.50;99.90;;;;;;5022382;28;20211;-66
2023/05/08 05:38:37;;;;;;;15.33;12.80;;;18.50;99.90;;;;;;5021218;28;20244;-66
2023/05/08 05:41:03;;;;;;;14.33;12.97;;;18.50;99.90;;;;;;5018071;28;20254;-66
2023/05/08 05:43:29;;;;;;;14.97;13.57;;;18.50;99.90;;;;;;5022944;28;20471;-66
2023/05/08 05:45:57;;;;;;;16.10;13.07;;;18.50;99.90;;;;;;5026388;28;20287;-65
2023/05/08 05:48:23;;;;;;;18.20;14.10;;;18.50;99.90;;;;;;5019794;28;20286;-66
2023/05/08 05:50:48;;;;;;;16.20;14.50;;;18.60;99.90;;;;;;5025485;28;20506;-66
2023/05/08 05:53:14;;;;;;;17.10;15.30;;;18.60;99.90;;;;;;5022820;28;20192;-66
2023/05/08 05:55:40;;;;;;;20.40;15.20;;;18.60;99.90;;;;;;5017138;28;20192;-66
2023/05/08 05:58:05;;;;;;;17.90;16.00;;;18.60;99.90;;;;;;5016359;28;20462;-66
2023/05/08 06:00:31;;;;;;;21.17;18.70;;;18.60;99.90;;;;;;5021353;28;20184;-66
2023/05/08 06:02:57;;;;;;;20.00;17.53;;;18.60;99.90;;;;;;5018695;28;20220;-65
2023/05/08 06:05:23;;;;;;;22.17;18.60;;;18.60;99.90;;;;;;5020355;28;20622;-65
2023/05/08 06:07:48;;;;;;;19.83;17.20;;;18.60;99.90;;;;;;5019140;28;20597;-66
2023/05/08 06:10:14;;;;;;;21.10;18.60;;;18.60;99.90;;;;;;5019606;28;20434;-66
2023/05/08 06:12:40;;;;;;;21.40;18.17;;;18.60;99.90;;;;;;5023244;28;20723;-65
2023/05/08 06:15:06;;;;;;;21.20;18.03;;;18.60;99.90;;;;;;5012413;28;20189;-66
2023/05/08 06:17:32;;;;;;;21.47;18.70;;;18.60;99.90;;;;;;5023603;28;20466;-66
2023/05/08 06:19:57;;;;;;;20.90;17.87;;;18.50;99.90;;;;;;5021672;28;20463;-65
2023/05/08 06:22:24;;;;;;;20.93;18.73;;;18.60;99.90;;;;;;5022214;28;20191;-67
2023/05/08 06:24:53;;;;;;;20.90;18.73;;;18.60;99.90;;;;;;5021893;28;20239;-67
2023/05/08 06:27:19;;;;;;;25.03;20.67;;;18.60;99.90;;;;;;5014498;28;20428;-67
2023/05/08 06:29:46;;;;;;;21.00;18.43;;;18.60;99.90;;;;;;5018855;28;20450;-67
2023/05/08 06:32:12;;;;;;;20.63;18.53;;;18.60;99.90;;;;;;5019620;28;20776;-67
2023/05/08 06:34:38;;;;;;;18.63;16.63;;;18.60;99.90;;;;;;5017518;28;20462;-67
2023/05/08 06:37:03;;;;;;;20.53;15.30;;;18.60;99.90;;;;;;5012842;28;20217;-67
2023/05/08 06:39:29;;;;;;;20.20;17.00;;;18.60;99.90;;;;;;5021746;28;20220;-67
2023/05/08 06:41:54;;;;;;;18.10;16.13;;;18.60;99.90;;;;;;5020182;28;20551;-67
2023/05/08 06:44:20;;;;;;;20.70;18.50;;;18.60;99.90;;;;;;5017015;28;20212;-68
2023/05/08 06:46:45;;;;;;;18.57;16.57;;;18.60;99.90;;;;;;5023352;28;20186;-67
2023/05/08 06:49:11;;;;;;;22.30;19.90;;;18.60;99.90;;;;;;5020791;28;20284;-67
2023/05/08 06:51:38;;;;;;;22.13;18.87;;;18.60;99.90;;;;;;5024160;28;20274;-67
2023/05/08 06:54:07;;;;;;;19.37;17.37;;;18.60;99.90;;;;;;5021240;28;21123;-67
2023/05/08 06:56:33;;;;;;;19.23;17.20;;;18.60;99.90;;;;;;5018629;28;20424;-67
2023/05/08 06:58:59;;;;;;;18.77;16.87;;;18.60;99.90;;;;;;5019474;28;20537;-67
2023/05/08 07:01:25;;;;;;;20.00;17.50;;;18.70;99.90;;;;;;5014129;28;20458;-67
2023/05/08 07:03:50;;;;;;;22.20;19.23;;;18.70;99.90;;;;;;5020442;28;20467;-67
2023/05/08 07:06:16;;;;;;;23.63;18.93;;;18.70;99.90;;;;;;5020456;28;20669;-67
2023/05/08 07:08:41;;;;;;;19.30;17.40;;;18.80;99.90;;;;;;5021680;28;20768;-67
2023/05/08 07:11:08;;;;;;;17.60;15.80;;;18.90;99.90;;;;;;5022049;28;20875;-67
2023/05/08 07:13:37;;;;;;;19.40;17.30;;;18.90;99.90;;;;;;5018350;28;20180;-67
2023/05/08 07:16:10;;;;;;;20.40;17.63;;;19.00;99.90;;;;;;5018660;28;20419;-67
2023/05/08 07:18:36;;;;;;;21.07;18.97;;;19.10;99.90;;;;;;5021503;28;20474;-67
2023/05/08 07:21:02;;;;;;;21.13;18.97;;;19.10;99.90;;;;;;5022016;28;20921;-68
2023/05/08 07:23:28;;;;;;;20.13;17.70;;;19.20;99.90;;;;;;5023531;28;20212;-68
2023/05/08 07:25:53;;;;;;;22.17;19.73;;;19.20;99.90;;;;;;5021632;28;20195;-69
2023/05/08 07:28:19;;;;;;;21.63;19.50;;;19.20;99.90;;;;;;5022248;28;20743;-69
2023/05/08 07:30:45;;;;;;;20.27;18.17;;;19.20;99.90;;;;;;5016758;28;20272;-69
2023/05/08 07:33:11;;;;;;;18.20;15.70;;;19.30;99.90;;;;;;5021445;28;20419;-69
2023/05/08 07:35:38;;;;;;;20.30;18.17;;;19.30;99.90;;;;;;5021674;28;20650;-68
2023/05/08 07:38:04;;;;;;;20.67;16.60;;;19.30;99.90;;;;;;5020799;28;20540;-69
2023/05/08 07:40:29;;;;;;;20.57;17.73;;;19.40;99.90;;;;;;5020057;28;20932;-69
2023/05/08 07:42:55;;;;;;;20.37;18.23;;;19.40;99.90;;;;;;5023097;28;20220;-69
2023/05/08 07:45:20;;;;;;;22.30;20.00;;;19.30;99.90;;;;;;5022086;28;20181;-69
2023/05/08 07:47:51;;;;;;;22.13;19.57;;;19.30;99.90;;;;;;5027697;28;20184;-69
2023/05/08 07:50:17;;;;;;;20.10;17.90;;;19.30;99.90;;;;;;5025446;28;20179;-68
2023/05/08 07:52:42;;;;;;;21.03;18.20;;;19.30;99.90;;;;;;5022678;28;20439;-68
2023/05/08 07:55:08;;;;;;;21.70;19.40;;;19.30;99.90;;;;;;5023037;28;20419;-67
2023/05/08 07:57:38;;;;;;;21.80;19.53;;;19.40;99.90;;;;;;5025845;28;20185;-66
2023/05/08 08:00:10;;;;;;;24.23;20.10;;;19.40;99.90;;;;;;5026804;28;20322;-68
2023/05/08 08:02:36;;;;;;;24.07;21.20;;;19.40;99.90;;;;;;5026769;28;20795;-68
2023/05/08 08:05:02;;;;;;;23.40;20.33;;;19.40;99.90;;;;;;5026271;28;20504;-67
2023/05/08 08:07:28;;;;;;;24.77;19.60;;;19.40;99.90;;;;;;5025897;28;20893;-68
2023/05/08 08:09:54;;;;;;;24.73;19.63;;;19.40;99.90;;;;;;5025328;28;20430;-68
2023/05/08 08:12:20;;;;;;;21.63;19.43;;;19.40;99.90;;;;;;5021540;28;20176;-68
2023/05/08 08:14:46;;;;;;;19.80;17.80;;;19.40;99.90;;;;;;5023794;28;20939;-68
2023/05/08 08:17:11;;;;;;;22.10;19.90;;;19.40;99.90;;;;;;5011167;28;20195;-67
2023/05/08 08:19:37;;;;;;;22.47;20.07;;;19.30;99.90;;;;;;5021163;28;20386;-67
2023/05/08 08:22:02;;;;;;;23.23;20.77;;;19.30;99.90;;;;;;5024371;28;20287;-67
2023/05/08 08:24:28;;;;;;;36.17;22.10;;;19.20;99.90;;;;;;5018408;28;21215;-67
2023/05/08 08:26:54;;;;;;;22.47;19.83;;;19.30;99.90;;;;;;5025613;28;20224;-67
2023/05/08 08:29:20;;;;;;;20.87;18.60;;;19.30;99.90;;;;;;5021121;28;20200;-67
2023/05/08 08:31:45;;;;;;;21.17;18.97;;;19.30;99.90;;;;;;5021670;28;20445;-67
2023/05/08 08:34:11;;;;;;;22.30;19.40;;;19.30;99.90;;;;;;5020126;28;20790;-69
2023/05/08 08:36:38;;;;;;;22.40;20.10;;;19.30;99.90;;;;;;5024710;28;20188;-67
2023/05/08 08:39:03;;;;;;;23.10;20.60;;;19.30;99.90;;;;;;5019724;28;20216;-68
2023/05/08 08:41:29;;;;;;;27.30;21.13;;;19.40;99.90;;;;;;5025081;28;20414;-68
2023/05/08 08:43:55;;;;;;;24.63;19.30;;;19.40;99.90;;;;;;5026315;28;20208;-68
2023/05/08 08:46:24;;;;;;;23.97;21.17;;;19.40;99.90;;;;;;5024482;28;20177;-69
2023/05/08 08:48:52;;;;;;;22.20;19.17;;;19.40;99.90;;;;;;5021621;28;20207;-67
2023/05/08 08:51:27;;;;;;;19.80;17.80;;;19.50;99.90;;;;;;5026132;28;20981;-68
2023/05/08 08:54:08;;;;;;;23.30;20.30;;;19.50;99.90;;;;;;5025778;28;20423;-66
2023/05/08 08:56:36;;;;;;;19.87;17.77;;;19.60;99.90;;;;;;5021802;28;20727;-66
2023/05/08 08:59:03;;;;;;;23.10;20.30;;;19.60;99.90;;;;;;5014844;28;20451;-67
2023/05/08 09:01:33;;;;;;;25.30;22.67;;;19.70;99.90;;;;;;5020993;28;20441;-67
2023/05/08 09:03:58;;;;;;;25.00;21.47;;;19.70;99.90;;;;;;5021584;28;20467;-67
2023/05/08 09:06:26;;;;;;;29.33;22.07;;;19.70;99.90;;;;;;5022435;28;20941;-67
2023/05/08 09:08:56;;;;;;;22.70;20.30;;;19.60;99.90;;;;;;5023814;28;20193;-66
2023/05/08 09:11:23;;;;;;;22.07;19.03;;;19.70;99.90;;;;;;5024292;28;20416;-66
2023/05/08 09:13:49;;;;;;;21.43;19.17;;;19.80;99.90;;;;;;5022995;28;20431;-66
2023/05/08 09:16:14;;;;;;;21.90;19.73;;;19.80;99.90;;;;;;5023150;28;20434;-67
2023/05/08 09:18:40;;;;;;;21.60;19.30;;;19.90;99.90;;;;;;5021324;28;20291;-66
2023/05/08 09:21:06;;;;;;;21.37;19.07;;;19.90;99.90;;;;;;5024422;28;20824;-67
2023/05/08 09:23:34;;;;;;;24.87;19.53;;;19.90;99.90;;;;;;5023531;28;20773;-67
2023/05/08 09:26:00;;;;;;;24.03;19.53;;;19.90;99.90;;;;;;5012678;28;20942;-67
2023/05/08 09:28:26;;;;;;;22.63;20.33;;;19.90;99.90;;;;;;5021195;28;20531;-67
2023/05/08 09:30:56;;;;;;;26.10;19.47;;;19.80;99.90;;;;;;5017678;28;20188;-67
2023/05/08 09:33:24;;;;;;;21.60;19.27;;;19.80;99.90;;;;;;5022917;28;20203;-66
2023/05/08 09:35:50;;;;;;;23.00;20.20;;;19.80;99.90;;;;;;5019663;28;20554;-67
2023/05/08 09:38:34;;;;;;;20.83;18.63;;;19.70;99.90;;;;;;5021571;28;20522;-67
2023/05/08 09:41:09;;;;;;;21.93;19.73;;;19.70;99.90;;;;;;5024967;28;20180;-66
2023/05/08 09:43:34;;;;;;;21.30;19.20;;;19.60;99.90;;;;;;5021990;28;20578;-66
2023/05/08 09:46:33;;;;;;;24.37;19.57;;;19.50;99.90;;;;;;5012647;28;20443;-66
2023/05/08 09:49:00;;;;;;;21.43;19.17;;;19.70;99.90;;;;;;5018740;28;20315;-67
2023/05/08 09:51:29;;;;;;;25.30;20.67;;;19.60;99.90;;;;;;5024505;28;20438;-69
2023/05/08 09:53:57;;;;;;;22.43;19.93;;;19.60;99.90;;;;;;5024123;28;20424;-69
2023/05/08 09:56:34;;;;;;;23.73;20.80;;;19.60;99.90;;;;;;5016983;28;20447;-69
2023/05/08 09:59:02;;;;;;;25.97;21.10;;;19.50;99.90;;;;;;5020235;28;20525;-67
2023/05/08 10:01:33;;;;;;;22.90;20.60;;;19.50;99.90;;;;;;5021553;28;20423;-68
2023/05/08 10:03:59;;;;;;;22.30;20.00;;;19.40;99.90;;;;;;5022886;28;20470;-68
2023/05/08 10:06:27;;;;;;;23.30;20.90;;;19.40;99.90;;;;;;5018760;28;20924;-69
2023/05/08 10:09:06;;;;;;;22.60;19.90;;;19.40;99.90;;;;;;5020166;28;20455;-69
2023/05/08 10:11:31;;;;;;;24.63;22.13;;;19.50;99.90;;;;;;5016010;28;20931;-68
2023/05/08 10:13:57;;;;;;;25.60;22.97;;;19.50;99.90;;;;;;5019854;28;20444;-68
2023/05/08 10:16:26;;;;;;;26.57;22.63;;;19.60;99.90;;;;;;5020954;28;20211;-68
2023/05/08 10:18:59;;;;;;;25.70;23.10;;;19.70;99.90;;;;;;5014265;28;20316;-69
2023/05/08 10:21:28;;;;;;;25.17;20.80;;;19.70;99.90;;;;;;5017422;28;20437;-68
2023/05/08 10:23:56;;;;;;;21.60;19.30;;;19.70;99.90;;;;;;5012980;28;20487;-68
2023/05/08 10:26:27;;;;;;;22.30;19.90;;;19.80;99.90;;;;;;5017400;28;20967;-69
2023/05/08 10:28:57;;;;;;;21.33;18.67;;;19.80;99.90;;;;;;5017307;28;20494;-69
2023/05/08 10:31:33;;;;;;;22.20;18.27;;;19.90;99.90;;;;;;5012043;28;20429;-68
2023/05/08 10:34:01;;;;;;;20.90;18.90;;;20.00;99.90;;;;;;5020680;28;20518;-68
2023/05/08 10:36:28;;;;;;;21.90;19.80;;;20.10;99.90;;;;;;5017260;28;20465;-68
2023/05/08 10:38:57;;;;;;;20.60;18.60;;;20.10;99.90;;;;;;5020124;28;20550;-69
2023/05/08 10:41:23;;;;;;;20.37;18.30;;;20.10;99.90;;;;;;5017669;28;20833;-68
2023/05/08 10:43:49;;;;;;;19.53;17.63;;;20.10;99.90;;;;;;5018875;28;20466;-69
2023/05/08 10:46:33;;;;;;;21.40;17.07;;;20.10;99.90;;;;;;5019668;28;20185;-69
2023/05/08 10:49:41;;;;;;;19.30;16.97;;;20.10;99.90;;;;;;5013311;28;20824;-69
2023/05/08 10:52:19;;;;;;;16.93;15.13;;;20.10;99.90;;;;;;4984379;28;20424;-69
2023/05/08 10:55:03;;;;;;;16.60;14.97;;;20.20;99.90;;;;;;5017466;28;20527;-68
2023/05/08 10:57:29;;;;;;;17.90;16.10;;;20.20;99.90;;;;;;5019309;28;20423;-69
2023/05/08 10:59:55;;;;;;;20.50;17.40;;;20.20;99.90;;;;;;5020287;28;20463;-68
2023/05/08 11:02:29;;;;;;;19.33;16.97;;;20.30;99.90;;;;;;5018824;28;20478;-68
2023/05/08 11:05:08;;;;;;;21.07;16.20;;;20.40;99.90;;;;;;5018211;28;20208;-68
2023/05/08 11:07:55;;;;;;;17.60;15.53;;;20.50;99.90;;;;;;5018372;28;20785;-69
2023/05/08 11:10:21;;;;;;;16.97;15.27;;;20.70;99.90;;;;;;5020364;28;20442;-69
2023/05/08 11:12:49;;;;;;;16.33;14.07;;;20.70;99.90;;;;;;5016928;28;20518;-68
2023/05/08 11:15:15;;;;;;;18.10;15.17;;;20.90;99.90;;;;;;5020684;28;20414;-68
2023/05/08 11:17:45;;;;;;;13.80;12.43;;;21.00;99.90;;;;;;5018427;28;22788;-66
2023/05/08 11:20:11;;;;;;;17.47;15.60;;;21.10;99.90;;;;;;5018910;28;20169;-67
2023/05/08 11:22:37;;;;;;;14.33;12.77;;;21.30;99.90;;;;;;5021655;28;20917;-66
2023/05/08 11:25:10;;;;;;;14.53;13.10;;;21.40;99.90;;;;;;5021494;28;20215;-69
2023/05/08 11:27:48;;;;;;;14.60;13.20;;;21.40;99.90;;;;;;5016962;28;20963;-69
2023/05/08 11:30:19;;;;;;;13.97;12.50;;;21.50;99.90;;;;;;5018562;28;20439;-69
2023/05/08 11:33:17;;;;;;;14.50;13.00;;;21.60;99.90;;;;;;5024057;28;20419;-68
2023/05/08 11:35:50;;;;;;;15.73;13.27;;;21.70;99.90;;;;;;5023246;28;20533;-68
2023/05/08 11:38:31;;;;;;;16.23;14.70;;;21.70;99.90;;;;;;5023464;28;20439;-69
2023/05/08 11:40:57;;;;;;;17.73;15.83;;;21.80;99.90;;;;;;5025826;28;20430;-70
2023/05/08 11:43:32;;;;;;;12.33;11.17;;;21.90;99.90;;;;;;5026965;28;21027;-69
2023/05/08 11:46:03;;;;;;;12.97;11.70;;;21.90;99.90;;;;;;5025167;28;20438;-69
2023/05/08 11:48:32;;;;;;;12.90;11.70;;;21.90;99.90;;;;;;5025015;28;20447;-69
2023/05/08 11:50:58;;;;;;;10.60;9.50;;;22.10;99.90;;;;;;5026034;28;20826;-70
2023/05/08 11:53:24;;;;;;;10.47;9.57;;;22.20;99.90;;;;;;5025327;28;20419;-69
2023/05/08 11:55:54;;;;;;;10.27;9.37;;;22.20;99.90;;;;;;5024756;28;20461;-69
2023/05/08 11:58:20;;;;;;;10.87;9.87;;;22.20;99.90;;;;;;5024915;28;20264;-69
2023/05/08 12:00:47;;;;;;;10.93;10.00;;;22.30;99.90;;;;;;5026127;28;20422;-69
2023/05/08 12:03:17;;;;;;;11.70;10.63;;;22.30;99.90;;;;;;5026387;28;21106;-70
2023/05/08 12:05:43;;;;;;;11.93;10.93;;;22.20;99.90;;;;;;5027010;28;20485;-69
2023/05/08 12:08:10;;;;;;;11.90;10.90;;;22.20;99.90;;;;;;5026906;28;21025;-69
2023/05/08 12:10:44;;;;;;;11.87;10.63;;;22.30;99.90;;;;;;5025928;28;20936;-69
2023/05/08 12:13:21;;;;;;;12.90;11.40;;;22.30;99.90;;;;;;5018722;28;20497;-69
2023/05/08 12:15:58;;;;;;;11.00;9.90;;;22.40;99.90;;;;;;5021530;28;20447;-69
2023/05/08 12:18:25;;;;;;;11.67;10.47;;;22.40;99.90;;;;;;5017962;28;20467;-69
2023/05/08 12:20:56;;;;;;;12.27;11.07;;;22.50;99.90;;;;;;5024659;28;20443;-69
2023/05/08 12:23:25;;;;;;;13.53;11.30;;;22.50;99.90;;;;;;5024883;28;20466;-69
2023/05/08 12:25:52;;;;;;;10.47;9.40;;;22.70;99.90;;;;;;5028220;28;20416;-69
2023/05/08 12:28:18;;;;;;;10.63;9.70;;;22.70;99.90;;;;;;5025801;28;20530;-69
2023/05/08 12:30:44;;;;;;;9.90;9.00;;;22.80;99.90;;;;;;5020335;28;20980;-69
2023/05/08 12:33:10;;;;;;;9.53;8.53;;;22.80;99.90;;;;;;5026342;28;20426;-69
2023/05/08 12:35:37;;;;;;;10.00;8.60;;;22.80;99.90;;;;;;5029575;28;21185;-69
2023/05/08 12:38:05;;;;;;;8.30;7.60;;;22.90;99.90;;;;;;5024348;28;20442;-69
2023/05/08 12:40:43;;;;;;;9.90;9.00;;;23.10;99.90;;;;;;5023311;28;20502;-68
2023/05/08 12:43:09;;;;;;;8.87;8.07;;;23.20;99.90;;;;;;5019936;28;20477;-68